Time;durP1;ratioP1;P1;durP2;ratioP2;P2;SDS_P1;SDS_P2;PMS_P1;PMS_P2;Temp;Humidity;BMP_temperature;BMP_pressure;BME280_temperature;BME280_humidity;BME280_pressure;Samples;Min_cycle;Max_cycle;Signal;HPM_P1;HPM_P2
2021/11/25 00:02:18;;;;;;;35.52;16.00;;;;;;;2.61;86.11;100792.95;1706020;83;21078;-77
2021/11/25 00:04:45;;;;;;;35.00;15.88;;;;;;;2.59;85.79;100792.07;1706482;84;21098;-76
2021/11/25 00:07:11;;;;;;;30.27;16.02;;;;;;;2.56;85.68;100791.20;1706556;84;21031;-77
2021/11/25 00:09:38;;;;;;;34.45;16.62;;;;;;;2.56;87.19;100792.06;1706475;82;21970;-77
2021/11/25 00:12:06;;;;;;;35.40;15.32;;;;;;;2.55;86.81;100794.20;1706263;84;21137;-78
2021/11/25 00:14:33;;;;;;;39.85;15.70;;;;;;;2.56;87.46;100792.06;1705790;84;21038;-77
2021/11/25 00:17:00;;;;;;;32.58;15.83;;;;;;;2.59;87.97;100796.41;1705209;84;21106;-77
2021/11/25 00:19:28;;;;;;;38.10;16.52;;;;;;;2.57;87.79;100795.09;1701373;84;21067;-76
2021/11/25 00:21:55;;;;;;;38.70;16.12;;;;;;;2.60;88.09;100794.23;1688280;85;21805;-78
2021/11/25 00:24:21;;;;;;;34.60;15.30;;;;;;;2.58;88.49;100791.65;1688401;85;21732;-75
2021/11/25 00:26:48;;;;;;;31.25;14.60;;;;;;;2.59;88.45;100788.17;1687969;85;21091;-78
2021/11/25 00:29:15;;;;;;;36.17;16.27;;;;;;;2.59;88.30;100788.17;1688545;85;21086;-79
2021/11/25 00:31:43;;;;;;;35.28;16.00;;;;;;;2.55;88.87;100787.70;1688123;85;21059;-78
2021/11/25 00:34:10;;;;;;;37.90;15.18;;;;;;;2.57;87.86;100787.29;1688253;85;21531;-78
2021/11/25 00:36:38;;;;;;;32.50;16.52;;;;;;;2.55;88.89;100779.91;1700816;84;21087;-77
2021/11/25 00:39:06;;;;;;;36.90;16.05;;;;;;;2.55;87.67;100781.20;1706807;84;21325;-77
2021/11/25 00:41:32;;;;;;;36.75;16.00;;;;;;;2.56;87.90;100782.97;1707052;84;21112;-83
2021/11/25 00:43:59;;;;;;;40.83;16.85;;;;;;;2.59;88.05;100786.88;1678310;84;21067;-82
2021/11/25 00:46:26;;;;;;;34.00;16.17;;;;;;;2.59;86.99;100789.47;1678200;85;21608;-83
2021/11/25 00:48:54;;;;;;;37.40;16.37;;;;;;;2.61;87.96;100783.85;1677890;85;21028;-83
2021/11/25 00:51:20;;;;;;;42.65;16.62;;;;;;;2.62;87.18;100775.20;1677579;85;21057;-82
2021/11/25 00:53:48;;;;;;;32.25;16.12;;;;;;;2.64;87.61;100780.40;1677668;85;21087;-84
2021/11/25 00:56:16;;;;;;;37.40;18.45;;;;;;;2.64;87.74;100777.80;1680216;85;21122;-85
2021/11/25 00:58:43;;;;;;;33.33;16.00;;;;;;;2.61;86.59;100773.45;1685481;85;21644;-83
2021/11/25 01:01:09;;;;;;;30.62;14.33;;;;;;;2.61;87.17;100777.79;1699575;83;21014;-82
2021/11/25 01:03:36;;;;;;;38.28;17.00;;;;;;;2.60;87.73;100776.93;1715399;83;21018;-82
2021/11/25 01:06:04;;;;;;;42.10;17.37;;;;;;;2.60;88.50;100779.53;1714931;83;21611;-81
2021/11/25 01:11:06;;;;;;;45.63;18.47;;;;;;;2.67;89.89;100762.23;1881119;75;23986;-82
2021/11/25 01:13:34;;;;;;;40.33;18.82;;;;;;;2.63;89.72;100769.13;1841168;76;21032;-84
2021/11/25 01:16:01;;;;;;;41.60;17.60;;;;;;;2.63;89.49;100771.73;1842079;76;21468;-85
2021/11/25 01:18:29;;;;;;;45.10;18.32;;;;;;;2.61;89.02;100773.89;1829565;76;21067;-83
2021/11/25 01:20:56;;;;;;;37.65;16.93;;;;;;;2.62;90.08;100767.41;1847325;76;21039;-83
2021/11/25 01:23:27;;;;;;;38.67;17.67;;;;;;;2.63;89.95;100769.13;1831850;76;21138;-83
2021/11/25 01:25:55;;;;;;;38.60;17.12;;;;;;;2.60;89.53;100774.33;1840050;76;21027;-83
2021/11/25 01:28:23;;;;;;;45.43;18.80;;;;;;;2.60;89.59;100771.73;1830806;76;21249;-83
2021/11/25 01:30:54;;;;;;;38.65;18.07;;;;;;;2.59;88.77;100768.67;1847370;76;21154;-83
2021/11/25 01:33:21;;;;;;;39.50;18.65;;;;;;;2.59;89.20;100769.97;1851785;76;20996;-83
2021/11/25 01:35:48;;;;;;;42.88;18.07;;;;;;;2.57;88.95;100766.48;1851165;76;21174;-82
2021/11/25 01:38:15;;;;;;;39.45;17.80;;;;;;;2.59;89.50;100762.17;1844381;76;21049;-82
2021/11/25 01:40:43;;;;;;;33.00;16.05;;;;;;;2.60;89.98;100763.92;1811876;78;21092;-80
2021/11/25 01:43:10;;;;;;;33.05;16.50;;;;;;;2.59;89.10;100761.30;1743986;80;21020;-83
2021/11/25 01:45:36;;;;;;;30.60;15.18;;;;;;;2.57;89.16;100766.48;1812384;78;21072;-81
2021/11/25 01:48:04;;;;;;;27.90;14.80;;;;;;;2.56;89.44;100763.90;1788598;79;21089;-85
2021/11/25 01:50:33;;;;;;;30.75;16.42;;;;;;;2.54;89.51;100768.22;1777342;77;21004;-86
2021/11/25 01:53:01;;;;;;;41.02;17.50;;;;;;;2.54;90.23;100771.68;1762242;79;21065;-79
2021/11/25 01:55:28;;;;;;;38.15;17.07;;;;;;;2.54;90.86;100769.52;1783286;78;21074;-77
2021/11/25 01:57:55;;;;;;;34.23;17.60;;;;;;;2.52;90.07;100755.20;1776435;79;21072;-78
2021/11/25 02:00:29;;;;;;;33.85;17.25;;;;;;;2.52;90.21;100768.20;1791231;78;21895;-77
2021/11/25 02:02:56;;;;;;;29.65;16.67;;;;;;;2.48;90.55;100756.03;1823700;78;21083;-78
2021/11/25 02:05:23;;;;;;;35.60;19.60;;;;;;;2.52;89.87;100768.20;1797944;78;21534;-72
2021/11/25 02:07:50;;;;;;;36.60;17.67;;;;;;;2.53;90.05;100766.02;1794549;78;21032;-74
2021/11/25 02:10:16;;;;;;;39.88;20.65;;;;;;;2.48;89.00;100754.73;1796239;78;21017;-74
2021/11/25 02:12:43;;;;;;;38.30;19.05;;;;;;;2.47;89.21;100768.61;1788518;78;21034;-74
2021/11/25 02:15:11;;;;;;;36.38;19.50;;;;;;;2.44;88.76;100763.36;1753216;81;21538;-74
2021/11/25 02:17:39;;;;;;;37.23;19.65;;;;;;;2.42;89.03;100761.22;1755341;79;21532;-75
2021/11/25 02:20:08;;;;;;;35.85;19.82;;;;;;;2.37;88.44;100755.09;1754060;81;21107;-74
2021/11/25 02:22:38;;;;;;;36.03;19.73;;;;;;;2.33;88.95;100757.25;1786152;79;21048;-74
2021/11/25 02:25:07;;;;;;;38.13;19.12;;;;;;;2.33;89.29;100762.45;1793874;79;21015;-76
2021/11/25 02:27:35;;;;;;;36.83;19.20;;;;;;;2.30;89.84;100764.17;1759786;81;21049;-76
2021/11/25 02:30:04;;;;;;;52.00;23.25;;;;;;;2.31;90.90;100756.80;1781730;80;21194;-76
2021/11/25 02:32:36;;;;;;;48.60;19.67;;;;;;;2.29;91.02;100758.52;1761326;80;21103;-75
2021/11/25 02:35:05;;;;;;;37.70;18.95;;;;;;;2.29;91.77;100765.02;1790768;79;21073;-74
2021/11/25 02:37:32;;;;;;;32.63;17.32;;;;;;;2.29;91.89;100762.84;1773634;79;21558;-75
2021/11/25 02:39:59;;;;;;;34.63;18.05;;;;;;;2.28;92.60;100765.89;1791894;79;21054;-75
2021/11/25 02:42:25;;;;;;;38.55;19.40;;;;;;;2.27;92.31;100760.23;1795842;79;21322;-75
2021/11/25 02:44:52;;;;;;;34.00;18.15;;;;;;;2.27;92.69;100753.73;1785684;79;21074;-77
2021/11/25 02:47:19;;;;;;;33.80;19.62;;;;;;;2.28;92.74;100758.09;1792063;79;21136;-75
2021/11/25 02:49:46;;;;;;;30.32;17.55;;;;;;;2.28;93.01;100755.48;1785762;79;21018;-75
2021/11/25 02:52:13;;;;;;;34.95;16.37;;;;;;;2.29;92.54;100758.95;1776697;79;21103;-75
2021/11/25 02:54:43;;;;;;;31.35;16.10;;;;;;;2.29;91.90;100758.52;1775643;78;21598;-75
2021/11/25 02:57:11;;;;;;;30.50;18.17;;;;;;;2.32;93.17;100755.06;1770058;79;21622;-74
2021/11/25 02:59:37;;;;;;;32.10;17.65;;;;;;;2.30;92.35;100747.68;1769349;78;21076;-74
2021/11/25 03:02:04;;;;;;;34.20;17.35;;;;;;;2.30;91.53;100761.57;1786157;78;21071;-72
2021/11/25 03:04:31;;;;;;;32.90;17.23;;;;;;;2.25;91.41;100751.55;1780582;78;21071;-75
2021/11/25 03:06:58;;;;;;;31.17;17.23;;;;;;;2.29;92.10;100749.86;1788312;79;22182;-74
2021/11/25 03:09:24;;;;;;;32.60;17.85;;;;;;;2.29;92.10;100749.86;1792496;79;21042;-73
2021/11/25 03:11:53;;;;;;;31.45;16.17;;;;;;;2.29;92.11;100755.05;1776394;79;21615;-73
2021/11/25 03:14:20;;;;;;;30.90;17.37;;;;;;;2.28;92.83;100746.83;1766588;78;21020;-75
2021/11/25 03:16:46;;;;;;;38.58;19.23;;;;;;;2.30;93.75;100751.17;1754073;79;21497;-79
2021/11/25 03:19:13;;;;;;;33.50;17.98;;;;;;;2.29;92.91;100745.52;1780740;78;22111;-77
2021/11/25 03:21:40;;;;;;;32.70;16.42;;;;;;;2.31;92.87;100749.00;1763510;79;22152;-76
2021/11/25 03:24:07;;;;;;;31.87;15.50;;;;;;;2.32;93.94;100744.66;1792199;80;21731;-75
2021/11/25 03:26:34;;;;;;;32.40;17.30;;;;;;;2.31;94.05;100742.94;1783052;79;21077;-76
2021/11/25 03:29:01;;;;;;;29.70;17.15;;;;;;;2.31;94.58;100736.00;1782529;79;21153;-76
2021/11/25 03:31:30;;;;;;;40.70;20.12;;;;;;;2.33;94.43;100738.63;1780216;79;21134;-77
2021/11/25 03:33:59;;;;;;;42.33;22.65;;;;;;;2.31;94.35;100734.70;1782300;80;21689;-77
2021/11/25 03:36:26;;;;;;;49.58;22.55;;;;;;;2.29;94.16;100736.42;1798308;78;21040;-77
2021/11/25 03:38:56;;;;;;;37.60;20.57;;;;;;;2.29;94.16;100736.42;1787647;78;21051;-77
2021/11/25 03:41:23;;;;;;;35.35;19.60;;;;;;;2.26;93.82;100732.52;1769513;79;21057;-76
2021/11/25 03:43:49;;;;;;;35.88;19.62;;;;;;;2.26;93.74;100727.31;1766572;79;21501;-77
2021/11/25 03:46:16;;;;;;;37.08;20.35;;;;;;;2.24;92.95;100731.63;1811387;78;21100;-78
2021/11/25 03:48:43;;;;;;;38.05;21.30;;;;;;;2.22;92.99;100729.89;1798431;78;21073;-76
2021/11/25 03:51:12;;;;;;;36.75;21.90;;;;;;;2.20;93.20;100732.46;1812444;78;21031;-75
2021/11/25 03:53:42;;;;;;;43.05;23.38;;;;;;;2.16;93.59;100729.39;1811466;78;21064;-77
2021/11/25 03:56:11;;;;;;;41.88;23.92;;;;;;;2.16;93.59;100729.39;1802449;78;21119;-76
2021/11/25 03:58:38;;;;;;;36.98;20.35;;;;;;;2.15;93.31;100731.56;1814023;78;21507;-77
2021/11/25 04:01:04;;;;;;;33.38;19.05;;;;;;;2.15;93.42;100732.87;1804552;78;21061;-77
2021/11/25 04:03:32;;;;;;;39.65;20.82;;;;;;;2.17;94.68;100732.45;1811241;78;21061;-75
2021/11/25 04:05:59;;;;;;;31.50;18.27;;;;;;;2.18;94.44;100736.77;1807489;78;21079;-75
2021/11/25 04:08:26;;;;;;;33.38;19.62;;;;;;;2.18;95.15;100735.48;1796080;78;21534;-75
2021/11/25 04:10:55;;;;;;;34.80;19.00;;;;;;;2.17;95.24;100727.25;1789128;78;21563;-75
2021/11/25 04:13:21;;;;;;;34.95;19.73;;;;;;;2.17;95.24;100727.25;1789892;78;21084;-75
2021/11/25 04:15:48;;;;;;;42.55;19.02;;;;;;;2.20;95.24;100731.59;1783013;78;21493;-70
2021/11/25 04:18:15;;;;;;;32.65;19.65;;;;;;;2.22;95.89;100732.05;1790727;78;21539;-70
2021/11/25 04:20:42;;;;;;;40.17;19.15;;;;;;;2.20;95.45;100724.66;1784300;78;21434;-70
2021/11/25 04:23:09;;;;;;;37.95;19.05;;;;;;;2.20;94.46;100729.86;1795542;78;21080;-71
2021/11/25 04:25:39;;;;;;;35.52;19.05;;;;;;;2.15;93.68;100725.07;1798695;78;21575;-68
2021/11/25 04:28:05;;;;;;;35.23;18.52;;;;;;;2.14;94.95;100729.84;1787700;79;21079;-70
2021/11/25 04:35:54;;;;;;;35.65;18.75;;;;;;;2.13;95.65;100719.42;1798856;78;21026;-67
2021/11/25 04:38:21;;;;;;;40.00;20.45;;;;;;;2.13;95.65;100719.42;1802095;78;21091;-69
2021/11/25 04:40:57;;;;;;;34.73;17.62;;;;;;;2.15;95.51;100727.67;1791643;78;21055;-69
2021/11/25 04:43:24;;;;;;;41.53;20.70;;;;;;;2.16;96.20;100715.55;1752287;81;21065;-70
2021/11/25 04:45:51;;;;;;;43.05;22.00;;;;;;;2.16;96.20;100715.55;1750430;81;21115;-69
2021/11/25 04:48:21;;;;;;;41.60;22.40;;;;;;;2.17;96.32;100726.39;1750213;81;21518;-69
2021/11/25 04:50:48;;;;;;;46.88;24.72;;;;;;;2.17;95.75;100731.16;1780185;79;21136;-69
2021/11/25 04:53:16;;;;;;;48.35;24.37;;;;;;;2.15;95.82;100730.27;1769574;80;21498;-69
2021/11/25 04:55:43;;;;;;;46.73;24.30;;;;;;;2.17;96.44;100729.85;1759952;80;21584;-70
2021/11/25 04:58:10;;;;;;;47.10;24.80;;;;;;;2.17;96.31;100727.25;1765261;80;21083;-70
2021/11/25 05:00:37;;;;;;;49.55;24.60;;;;;;;2.17;96.31;100727.25;1769105;79;21001;-70
2021/11/25 05:03:04;;;;;;;51.08;26.07;;;;;;;2.18;96.09;100725.08;1751522;80;21068;-70
2021/11/25 05:05:31;;;;;;;53.25;29.12;;;;;;;2.16;95.91;100711.64;1758228;79;21586;-68
2021/11/25 05:07:58;;;;;;;54.58;26.45;;;;;;;2.16;95.91;100711.64;1775616;79;21817;-71
2021/11/25 05:10:25;;;;;;;52.65;29.35;;;;;;;2.18;96.17;100715.98;1796151;78;21132;-70
2021/11/25 05:12:52;;;;;;;47.27;26.40;;;;;;;2.17;96.15;100714.27;1771756;79;21210;-67
2021/11/25 05:15:18;;;;;;;38.02;22.58;;;;;;;2.16;95.66;100712.94;1796827;78;21129;-68
2021/11/25 05:17:45;;;;;;;33.33;18.95;;;;;;;2.16;96.90;100715.55;1812066;78;21104;-69
2021/11/25 05:20:13;;;;;;;41.60;21.30;;;;;;;2.16;96.52;100709.05;1797262;78;21075;-70
2021/11/25 05:22:40;;;;;;;43.28;21.52;;;;;;;2.16;96.02;100708.61;1758591;78;21240;-69
2021/11/25 05:25:09;;;;;;;40.52;22.00;;;;;;;2.16;96.24;100712.50;1779575;79;21029;-69
2021/11/25 05:27:37;;;;;;;34.58;19.45;;;;;;;2.18;97.00;100709.48;1765560;78;21088;-70
2021/11/25 05:30:05;;;;;;;39.65;21.17;;;;;;;2.18;96.93;100702.99;1774630;79;21505;-69
2021/11/25 05:32:32;;;;;;;40.23;20.77;;;;;;;2.20;97.07;100706.47;1754648;79;21095;-68
2021/11/25 05:34:59;;;;;;;52.75;26.10;;;;;;;2.19;97.67;100709.95;1751416;79;21040;-68
2021/11/25 05:37:25;;;;;;;49.50;25.90;;;;;;;2.16;97.94;100711.20;1752791;80;21047;-70
2021/11/25 05:39:52;;;;;;;47.83;25.25;;;;;;;2.16;97.94;100711.20;1769847;79;21750;-69
2021/11/25 05:42:20;;;;;;;51.90;26.40;;;;;;;2.16;98.12;100712.94;1763000;79;21115;-68
2021/11/25 05:44:46;;;;;;;59.55;28.52;;;;;;;2.17;97.91;100719.46;1763283;79;21646;-71
2021/11/25 05:47:13;;;;;;;48.58;25.43;;;;;;;2.17;97.91;100719.46;1748146;79;21076;-71
2021/11/25 05:49:40;;;;;;;46.18;23.70;;;;;;;2.18;97.24;100713.39;1762449;80;21029;-71
2021/11/25 05:52:07;;;;;;;46.00;23.90;;;;;;;2.21;97.60;100710.83;1757709;79;21583;-70
2021/11/25 05:54:34;;;;;;;42.15;23.42;;;;;;;2.22;96.88;100714.30;1755203;80;21092;-71
2021/11/25 05:57:01;;;;;;;44.80;24.30;;;;;;;2.18;96.62;100704.73;1767674;79;21050;-71
2021/11/25 05:59:28;;;;;;;52.38;24.65;;;;;;;2.15;96.49;100712.52;1767846;79;21240;-71
2021/11/25 06:01:55;;;;;;;43.70;23.10;;;;;;;2.15;96.97;100712.08;1751321;79;21052;-71
2021/11/25 06:04:22;;;;;;;45.17;24.00;;;;;;;2.17;96.47;100716.86;1771145;79;21036;-71
2021/11/25 06:06:49;;;;;;;47.33;23.27;;;;;;;2.14;96.37;100719.45;1766882;78;21064;-71
2021/11/25 06:09:16;;;;;;;51.02;26.00;;;;;;;2.14;96.37;100719.45;1784670;80;21091;-71
2021/11/25 06:11:43;;;;;;;43.98;23.80;;;;;;;2.12;96.67;100709.88;1788568;78;22225;-71
2021/11/25 06:14:11;;;;;;;48.90;25.40;;;;;;;2.08;96.54;100707.70;1781795;80;21100;-71
2021/11/25 06:16:38;;;;;;;59.85;30.45;;;;;;;2.09;96.67;100716.82;1766985;79;21097;-72
2021/11/25 06:19:04;;;;;;;62.25;32.60;;;;;;;2.07;97.00;100714.64;1773417;79;21077;-71
2021/11/25 06:21:31;;;;;;;69.95;32.80;;;;;;;2.09;97.81;100718.52;1758157;79;21102;-71
2021/11/25 06:23:58;;;;;;;62.80;29.30;;;;;;;2.10;98.70;100715.95;1784701;79;21992;-71
2021/11/25 06:26:25;;;;;;;58.17;30.43;;;;;;;2.10;98.06;100721.58;1782187;79;22269;-71
2021/11/25 06:28:54;;;;;;;59.42;28.40;;;;;;;2.08;97.89;100717.66;1775959;79;21535;-71
2021/11/25 06:31:22;;;;;;;61.30;29.85;;;;;;;2.10;97.91;100724.17;1754053;79;21234;-72
2021/11/25 06:33:49;;;;;;;59.00;29.52;;;;;;;2.12;97.99;100721.57;1777526;79;21082;-71
2021/11/25 06:36:15;;;;;;;66.70;31.37;;;;;;;2.12;97.87;100715.97;1770775;79;21146;-71
2021/11/25 06:38:42;;;;;;;61.50;29.15;;;;;;;2.17;98.21;100720.76;1795466;78;21678;-71
2021/11/25 06:41:09;;;;;;;59.15;29.30;;;;;;;2.17;98.21;100720.76;1756045;79;21031;-71
2021/11/25 06:43:35;;;;;;;56.15;26.05;;;;;;;2.17;97.49;100722.05;1803636;78;21033;-71
2021/11/25 06:46:02;;;;;;;58.60;29.00;;;;;;;2.15;96.88;100717.27;1783072;79;21094;-71
2021/11/25 06:48:30;;;;;;;53.87;26.90;;;;;;;2.15;96.88;100717.27;1771098;79;21140;-72
2021/11/25 06:50:57;;;;;;;57.23;29.57;;;;;;;2.15;97.17;100719.88;1761450;79;21548;-71
2021/11/25 06:53:26;;;;;;;55.15;28.25;;;;;;;2.15;97.24;100719.88;1794582;78;21064;-71
2021/11/25 06:55:52;;;;;;;50.65;26.07;;;;;;;2.15;97.24;100719.02;1788011;78;21021;-71
2021/11/25 06:58:18;;;;;;;52.27;27.27;;;;;;;2.19;96.90;100717.74;1781094;78;21047;-72
2021/11/25 07:00:46;;;;;;;56.02;25.15;;;;;;;2.19;96.90;100717.74;1779298;78;21758;-71
2021/11/25 07:03:12;;;;;;;46.10;24.63;;;;;;;2.22;96.92;100724.25;1785857;78;21619;-70
2021/11/25 07:05:39;;;;;;;41.13;22.37;;;;;;;2.23;96.73;100719.91;1789186;78;21030;-71
2021/11/25 07:08:07;;;;;;;44.83;23.55;;;;;;;2.23;97.90;100710.41;1786570;78;21344;-71
2021/11/25 07:10:34;;;;;;;41.45;21.75;;;;;;;2.28;97.79;100720.41;1791890;78;21032;-71
2021/11/25 07:13:01;;;;;;;44.42;23.67;;;;;;;2.30;98.17;100720.39;1778870;79;21506;-72
2021/11/25 07:15:27;;;;;;;44.75;21.85;;;;;;;2.30;97.95;100716.09;1764515;79;21115;-72
2021/11/25 07:17:56;;;;;;;52.23;24.40;;;;;;;2.32;97.14;100722.57;1759427;79;21287;-72
2021/11/25 07:20:22;;;;;;;47.93;23.73;;;;;;;2.36;98.15;100729.53;1759359;79;21679;-72
2021/11/25 07:22:49;;;;;;;45.48;22.50;;;;;;;2.38;96.94;100726.95;1760063;79;21507;-72
2021/11/25 07:25:18;;;;;;;52.70;23.77;;;;;;;2.38;96.87;100718.72;1774773;79;21393;-71
2021/11/25 07:27:46;;;;;;;44.50;22.80;;;;;;;2.41;96.80;100728.27;1772547;80;21060;-71
2021/11/25 07:30:15;;;;;;;49.85;24.45;;;;;;;2.43;96.62;100726.55;1785957;78;21460;-70
2021/11/25 07:32:44;;;;;;;52.13;25.17;;;;;;;2.46;96.78;100726.55;1799080;78;21160;-70
2021/11/25 07:35:11;;;;;;;48.58;23.45;;;;;;;2.50;97.02;100729.62;1793381;78;21068;-70
2021/11/25 07:37:38;;;;;;;54.10;24.55;;;;;;;2.54;97.30;100728.78;1763255;79;21144;-69
2021/11/25 07:40:07;;;;;;;43.15;22.82;;;;;;;2.60;97.92;100720.12;1761724;80;21045;-69
2021/11/25 07:42:34;;;;;;;50.60;24.63;;;;;;;2.61;97.41;100727.94;1778322;78;21042;-70
2021/11/25 07:45:01;;;;;;;37.13;20.48;;;;;;;2.62;97.12;100724.50;1795591;78;21105;-70
2021/11/25 07:47:34;;;;;;;42.45;21.80;;;;;;;2.67;97.16;100729.28;1767821;79;21089;-70
2021/11/25 07:50:10;;;;;;;40.40;21.70;;;;;;;2.69;97.31;100728.87;1759214;80;22019;-70
2021/11/25 07:52:37;;;;;;;41.98;22.58;;;;;;;2.70;97.69;100721.92;1789401;78;21048;-68
2021/11/25 07:55:05;;;;;;;42.60;22.20;;;;;;;2.70;96.55;100721.48;1790456;78;21698;-70
2021/11/25 07:57:32;;;;;;;48.38;25.62;;;;;;;2.70;97.45;100718.89;1773230;80;21049;-69
2021/11/25 07:59:59;;;;;;;45.48;24.70;;;;;;;2.68;96.52;100723.20;1776669;80;21313;-69
2021/11/25 08:02:27;;;;;;;47.38;23.05;;;;;;;2.66;95.47;100718.42;1759518;79;21543;-70
2021/11/25 08:04:55;;;;;;;45.98;25.15;;;;;;;2.67;95.62;100714.98;1776970;80;21088;-70
2021/11/25 08:07:22;;;;;;;48.35;24.02;;;;;;;2.68;95.77;100723.20;1773072;79;21186;-70
2021/11/25 08:09:51;;;;;;;44.10;23.57;;;;;;;2.65;95.40;100715.40;1760897;79;21036;-70
2021/11/25 08:12:18;;;;;;;50.43;24.70;;;;;;;2.62;95.08;100712.80;1774980;79;21151;-69
2021/11/25 08:14:45;;;;;;;50.23;26.35;;;;;;;2.61;95.42;100709.73;1758864;80;21530;-70
2021/11/25 08:17:11;;;;;;;54.60;26.85;;;;;;;2.65;96.19;100710.20;1774528;79;21624;-70
2021/11/25 08:19:38;;;;;;;44.80;25.32;;;;;;;2.67;95.76;100705.88;1748758;80;21691;-70
2021/11/25 08:22:05;;;;;;;46.60;24.90;;;;;;;2.68;95.30;100707.60;1785291;78;21037;-70
2021/11/25 08:24:31;;;;;;;49.90;26.10;;;;;;;2.69;95.70;100711.96;1774911;78;21086;-70
2021/11/25 08:26:59;;;;;;;52.67;28.23;;;;;;;2.72;95.43;100710.66;1755432;80;21163;-70
2021/11/25 08:29:27;;;;;;;53.52;27.70;;;;;;;2.75;95.33;100710.23;1796766;78;21143;-70
2021/11/25 08:31:54;;;;;;;62.85;28.90;;;;;;;2.77;95.64;100715.02;1784705;78;21464;-70
2021/11/25 08:34:21;;;;;;;69.50;30.90;;;;;;;2.75;95.59;100702.00;1773464;78;21196;-70
2021/11/25 08:36:47;;;;;;;56.77;28.73;;;;;;;2.79;96.20;100714.60;1755310;80;21123;-70
2021/11/25 08:39:14;;;;;;;79.85;32.63;;;;;;;2.82;96.41;100709.40;1783141;78;22207;-70
2021/11/25 08:41:41;;;;;;;74.10;32.88;;;;;;;2.84;96.47;100712.88;1794620;78;21123;-69
2021/11/25 08:44:07;;;;;;;72.80;34.83;;;;;;;2.87;96.51;100705.94;1797822;78;21072;-70
2021/11/25 08:46:34;;;;;;;65.90;33.83;;;;;;;2.85;94.61;100696.39;1786086;79;21027;-70
2021/11/25 08:49:01;;;;;;;67.90;34.40;;;;;;;2.83;94.85;100697.71;1788456;78;21033;-69
2021/11/25 08:51:31;;;;;;;61.65;33.20;;;;;;;2.85;95.86;100699.00;1807874;78;21166;-70
2021/11/25 08:54:01;;;;;;;63.35;32.42;;;;;;;2.84;95.21;100694.67;1820695;78;21060;-70
2021/11/25 08:56:29;;;;;;;55.30;30.27;;;;;;;2.86;94.73;100687.74;1800038;78;22018;-70
2021/11/25 08:58:57;;;;;;;64.40;31.70;;;;;;;2.89;95.15;100682.54;1796424;78;21036;-70
2021/11/25 09:01:24;;;;;;;56.88;31.10;;;;;;;2.91;94.71;100677.77;1787565;78;20997;-70
2021/11/25 09:03:52;;;;;;;56.63;29.82;;;;;;;2.94;94.69;100676.91;1785549;79;21039;-69
2021/11/25 09:06:20;;;;;;;57.43;28.70;;;;;;;2.97;94.58;100680.84;1788576;79;21348;-69
2021/11/25 09:08:47;;;;;;;54.58;30.45;;;;;;;2.99;94.50;100676.92;1761303;81;21119;-69
2021/11/25 09:11:15;;;;;;;57.95;29.02;;;;;;;2.97;94.27;100680.84;1790070;79;21516;-69
2021/11/25 09:13:43;;;;;;;54.08;27.20;;;;;;;2.97;94.00;100670.44;1791570;79;21009;-69
2021/11/25 09:16:09;;;;;;;54.77;29.27;;;;;;;2.95;93.51;100666.95;1797500;78;22169;-69
2021/11/25 09:18:36;;;;;;;51.85;27.37;;;;;;;2.92;93.96;100659.12;1760866;79;21067;-69
2021/11/25 09:21:03;;;;;;;52.55;25.75;;;;;;;2.91;95.05;100660.00;1794955;78;21084;-69
2021/11/25 09:23:29;;;;;;;49.95;27.00;;;;;;;2.91;94.40;100666.50;1778003;79;21127;-70
2021/11/25 09:25:56;;;;;;;50.17;26.33;;;;;;;2.92;96.22;100663.92;1797174;78;21075;-69
2021/11/25 09:28:25;;;;;;;52.25;27.37;;;;;;;2.96;95.54;100658.27;1803934;78;21818;-70
2021/11/25 09:30:52;;;;;;;59.60;29.72;;;;;;;2.97;94.38;100660.03;1802053;78;21038;-69
2021/11/25 09:33:20;;;;;;;58.55;31.27;;;;;;;2.97;94.21;100653.93;1806187;78;21020;-70
2021/11/25 09:35:47;;;;;;;56.23;29.67;;;;;;;2.99;93.73;100654.40;1810101;78;21383;-70
2021/11/25 09:38:14;;;;;;;57.73;28.25;;;;;;;3.01;94.17;100651.34;1740670;81;21643;-69
2021/11/25 09:40:43;;;;;;;63.28;30.62;;;;;;;3.05;93.71;100658.73;1775524;79;21145;-69
2021/11/25 09:43:14;;;;;;;56.05;30.50;;;;;;;3.07;93.30;100653.97;1743015;81;21214;-69
2021/11/25 09:45:44;;;;;;;58.33;30.37;;;;;;;3.11;93.16;100652.25;1742764;81;21062;-69
2021/11/25 09:48:12;;;;;;;60.75;28.55;;;;;;;3.14;93.41;100650.50;1786814;79;21071;-69
2021/11/25 09:50:43;;;;;;;53.58;28.62;;;;;;;3.18;92.41;100650.53;1785584;80;21071;-68
2021/11/25 09:53:10;;;;;;;49.95;26.05;;;;;;;3.19;92.56;100647.91;1766207;79;21049;-68
2021/11/25 09:55:42;;;;;;;51.80;27.05;;;;;;;3.22;92.38;100652.25;1767485;78;21028;-69
2021/11/25 09:58:13;;;;;;;46.50;24.67;;;;;;;3.26;92.84;100643.58;1751646;80;21093;-70
2021/11/25 10:00:44;;;;;;;;;;;;;;;3.32;92.53;100647.50;1771996;79;21039;-69
2021/11/25 10:03:16;;;;;;;50.85;26.97;;;;;;;3.38;93.33;100638.38;1728184;81;20212;-69
2021/11/25 10:05:40;;;;;;;55.58;26.65;;;;;;;3.45;93.83;100637.54;1783858;79;21458;-69
2021/11/25 10:08:37;;;;;;;60.90;28.90;;;;;;;3.49;91.75;100636.64;1758616;80;21543;-70
2021/11/25 10:11:11;;;;;;;59.80;28.77;;;;;;;3.49;90.88;100632.73;1767373;80;21073;-70
2021/11/25 10:13:57;;;;;;;52.62;28.95;;;;;;;3.51;91.04;100629.70;1773400;79;21182;-70
2021/11/25 10:16:28;;;;;;;61.28;30.35;;;;;;;3.55;91.21;100621.03;1743657;79;21096;-70
2021/11/25 10:19:17;;;;;;;61.15;28.67;;;;;;;3.57;90.52;100614.09;1774457;79;21065;-69
2021/11/25 10:21:52;;;;;;;51.63;27.23;;;;;;;3.61;90.71;100614.07;1720496;81;21025;-69
2021/11/25 10:24:18;;;;;;;61.58;29.70;;;;;;;3.63;91.66;100611.03;1709955;82;21398;-69
2021/11/25 10:26:45;;;;;;;53.48;27.60;;;;;;;3.65;90.09;100613.20;1713948;80;22170;-69
2021/11/25 10:29:12;;;;;;;55.40;29.00;;;;;;;3.66;90.17;100609.72;1758061;80;21124;-69
2021/11/25 10:31:42;;;;;;;54.77;27.87;;;;;;;3.69;90.13;100607.13;1766363;78;21951;-69
2021/11/25 10:34:18;;;;;;;53.98;28.85;;;;;;;3.71;89.12;100597.58;1764480;80;21149;-68
2021/11/25 10:37:04;;;;;;;58.15;30.77;;;;;;;3.71;88.94;100593.67;1756812;80;21041;-70
2021/11/25 10:42:14;;;;;;;52.73;28.45;;;;;;;3.68;88.29;100588.04;1778507;79;21707;-70
2021/11/25 10:44:55;;;;;;;58.30;30.85;;;;;;;3.71;88.91;100584.12;1778222;79;21106;-69
2021/11/25 10:47:21;;;;;;;53.13;29.02;;;;;;;3.71;88.69;100576.74;1752675;79;21436;-69
2021/11/25 10:49:57;;;;;;;50.80;27.90;;;;;;;3.75;88.88;100574.54;1772674;80;21041;-69
2021/11/25 10:52:44;;;;;;;59.73;31.07;;;;;;;3.78;88.37;100568.05;1773894;80;21119;-69
2021/11/25 10:55:19;;;;;;;57.00;30.65;;;;;;;3.76;87.82;100561.97;1761117;80;21079;-69
2021/11/25 10:57:58;;;;;;;53.50;27.90;;;;;;;3.76;87.84;100553.70;1770618;80;21134;-69
2021/11/25 11:00:37;;;;;;;55.17;29.20;;;;;;;3.82;87.73;100554.14;1745593;81;21520;-69
2021/11/25 11:03:10;;;;;;;48.38;28.02;;;;;;;3.87;87.27;100544.56;1739289;80;21496;-69
2021/11/25 11:06:01;;;;;;;50.67;28.17;;;;;;;3.91;87.49;100547.61;1740404;80;21088;-68
2021/11/25 11:08:39;;;;;;;51.85;27.67;;;;;;;3.94;87.99;100549.33;1683306;83;21043;-69
2021/11/25 11:11:07;;;;;;;47.67;26.15;;;;;;;3.95;87.77;100549.30;1690243;83;21176;-69
2021/11/25 11:13:50;;;;;;;52.55;26.95;;;;;;;3.94;86.43;100546.28;1703875;82;21651;-69
2021/11/25 11:16:42;;;;;;;50.28;26.52;;;;;;;3.92;86.27;100533.69;1707280;83;21099;-68
2021/11/25 11:19:04;;;;;;;52.73;27.55;;;;;;;3.93;86.23;100528.92;1736186;81;21049;-69
2021/11/25 11:21:37;;;;;;;;;;;;;;;3.93;85.55;100536.74;1702297;81;21222;-69
2021/11/25 11:24:27;;;;;;;49.90;26.30;;;;;;;3.95;85.16;100530.20;1754388;80;21702;-69
2021/11/25 11:26:58;;;;;;;51.98;26.73;;;;;;;3.94;84.86;100520.22;1615275;87;21079;-70
2021/11/25 11:29:27;;;;;;;56.00;30.17;;;;;;;3.95;86.99;100525.84;1593219;88;21088;-70
2021/11/25 11:31:58;;;;;;;56.88;28.30;;;;;;;3.97;86.90;100520.20;1597461;89;21197;-70
2021/11/25 11:34:26;;;;;;;47.83;25.35;;;;;;;4.01;86.91;100509.78;1584391;89;21045;-70